sensor_id;sensor_type;location;lat;lon;timestamp;pressure;altitude;pressure_sealevel;temperature;humidity
47897;BME280;39629;51.400;5.494;2023-07-08T00:01:59;101456.72;;;17.48;100.00
47897;BME280;39629;51.400;5.494;2023-07-08T00:07:00;101448.75;;;17.48;100.00
47897;BME280;39629;51.400;5.494;2023-07-08T00:12:08;101440.16;;;16.90;100.00
47897;BME280;39629;51.400;5.494;2023-07-08T00:17:11;101435.69;;;16.90;100.00
47897;BME280;39629;51.400;5.494;2023-07-08T00:22:14;101432.03;;;16.96;100.00
47897;BME280;39629;51.400;5.494;2023-07-08T00:27:17;101432.19;;;16.88;100.00
47897;BME280;39629;51.400;5.494;2023-07-08T00:32:18;101429.78;;;16.76;100.00
47897;BME280;39629;51.400;5.494;2023-07-08T00:37:20;101428.16;;;16.67;100.00
47897;BME280;39629;51.400;5.494;2023-07-08T00:42:24;101427.22;;;16.69;100.00
47897;BME280;39629;51.400;5.494;2023-07-08T00:47:25;101418.41;;;16.67;100.00
47897;BME280;39629;51.400;5.494;2023-07-08T00:52:28;101422.81;;;16.68;100.00
47897;BME280;39629;51.400;5.494;2023-07-08T00:57:33;101414.19;;;16.56;100.00
47897;BME280;39629;51.400;5.494;2023-07-08T01:02:40;101415.81;;;16.63;100.00
47897;BME280;39629;51.400;5.494;2023-07-08T01:07:45;101412.34;;;16.61;100.00
47897;BME280;39629;51.400;5.494;2023-07-08T01:12:55;101423.16;;;16.50;100.00
47897;BME280;39629;51.400;5.494;2023-07-08T01:17:59;101419.75;;;16.42;100.00
47897;BME280;39629;51.400;5.494;2023-07-08T01:23:03;101409.41;;;16.75;100.00
47897;BME280;39629;51.400;5.494;2023-07-08T01:28:05;101419.53;;;16.54;100.00
47897;BME280;39629;51.400;5.494;2023-07-08T01:33:13;101410.25;;;16.77;100.00
47897;BME280;39629;51.400;5.494;2023-07-08T01:38:22;101405.41;;;16.97;100.00
47897;BME280;39629;51.400;5.494;2023-07-08T01:43:25;101403.63;;;16.99;100.00
47897;BME280;39629;51.400;5.494;2023-07-08T01:48:30;101402.81;;;16.94;100.00
47897;BME280;39629;51.400;5.494;2023-07-08T01:53:35;101388.53;;;17.00;100.00
47897;BME280;39629;51.400;5.494;2023-07-08T01:58:37;101388.81;;;16.86;100.00
47897;BME280;39629;51.400;5.494;2023-07-08T02:03:39;101379.75;;;16.95;100.00
47897;BME280;39629;51.400;5.494;2023-07-08T02:08:42;101382.25;;;16.60;100.00
47897;BME280;39629;51.400;5.494;2023-07-08T02:13:43;101378.53;;;16.69;100.00
47897;BME280;39629;51.400;5.494;2023-07-08T02:18:45;101360.34;;;16.46;100.00
47897;BME280;39629;51.400;5.494;2023-07-08T02:23:49;101366.44;;;16.52;100.00
47897;BME280;39629;51.400;5.494;2023-07-08T02:28:53;101362.91;;;16.52;100.00
47897;BME280;39629;51.400;5.494;2023-07-08T02:33:54;101346.13;;;16.50;100.00
47897;BME280;39629;51.400;5.494;2023-07-08T02:38:57;101347.75;;;16.57;100.00
47897;BME280;39629;51.400;5.494;2023-07-08T02:43:59;101346.00;;;16.56;100.00
47897;BME280;39629;51.400;5.494;2023-07-08T02:49:00;101353.31;;;16.43;100.00
47897;BME280;39629;51.400;5.494;2023-07-08T02:54:03;101358.97;;;16.23;100.00
47897;BME280;39629;51.400;5.494;2023-07-08T02:59:05;101355.91;;;15.96;100.00
47897;BME280;39629;51.400;5.494;2023-07-08T03:04:07;101365.81;;;15.85;100.00
47897;BME280;39629;51.400;5.494;2023-07-08T03:09:11;101366.81;;;15.78;100.00
47897;BME280;39629;51.400;5.494;2023-07-08T03:14:13;101372.28;;;15.67;100.00
47897;BME280;39629;51.400;5.494;2023-07-08T03:19:15;101380.41;;;15.58;100.00
47897;BME280;39629;51.400;5.494;2023-07-08T03:24:19;101374.38;;;15.48;100.00
47897;BME280;39629;51.400;5.494;2023-07-08T03:29:21;101386.81;;;15.43;100.00
47897;BME280;39629;51.400;5.494;2023-07-08T03:34:23;101391.28;;;15.38;100.00
47897;BME280;39629;51.400;5.494;2023-07-08T03:39:26;101384.25;;;15.35;100.00
47897;BME280;39629;51.400;5.494;2023-07-08T03:44:27;101386.03;;;15.35;100.00
47897;BME280;39629;51.400;5.494;2023-07-08T03:49:29;101388.78;;;15.28;100.00
47897;BME280;39629;51.400;5.494;2023-07-08T03:54:32;101393.16;;;15.31;100.00
47897;BME280;39629;51.400;5.494;2023-07-08T03:59:34;101392.31;;;15.29;100.00
47897;BME280;39629;51.400;5.494;2023-07-08T04:04:36;101398.66;;;15.15;100.00
47897;BME280;39629;51.400;5.494;2023-07-08T04:09:39;101394.63;;;15.50;100.00
47897;BME280;39629;51.400;5.494;2023-07-08T04:14:44;101397.06;;;15.67;100.00
47897;BME280;39629;51.400;5.494;2023-07-08T04:19:45;101404.16;;;15.65;100.00
47897;BME280;39629;51.400;5.494;2023-07-08T04:24:48;101397.97;;;15.66;100.00
47897;BME280;39629;51.400;5.494;2023-07-08T04:29:50;101393.34;;;15.78;100.00
47897;BME280;39629;51.400;5.494;2023-07-08T04:34:52;101402.06;;;15.86;100.00
47897;BME280;39629;51.400;5.494;2023-07-08T04:39:55;101380.13;;;16.29;100.00
47897;BME280;39629;51.400;5.494;2023-07-08T04:44:56;101388.81;;;16.39;100.00
47897;BME280;39629;51.400;5.494;2023-07-08T04:49:58;101384.91;;;17.04;100.00
47897;BME280;39629;51.400;5.494;2023-07-08T04:55:01;101387.91;;;17.29;100.00
47897;BME280;39629;51.400;5.494;2023-07-08T05:00:06;101393.84;;;18.17;100.00
47897;BME280;39629;51.400;5.494;2023-07-08T05:05:10;101392.16;;;18.81;100.00
47897;BME280;39629;51.400;5.494;2023-07-08T05:10:13;101384.63;;;19.25;100.00
47897;BME280;39629;51.400;5.494;2023-07-08T05:15:15;101384.47;;;19.01;100.00
47897;BME280;39629;51.400;5.494;2023-07-08T05:20:17;101386.78;;;19.72;100.00
47897;BME280;39629;51.400;5.494;2023-07-08T05:25:21;101379.81;;;20.21;100.00
47897;BME280;39629;51.400;5.494;2023-07-08T05:30:22;101372.97;;;20.65;100.00
47897;BME280;39629;51.400;5.494;2023-07-08T05:35:24;101377.75;;;21.27;100.00
47897;BME280;39629;51.400;5.494;2023-07-08T05:40:27;101377.94;;;21.23;100.00
47897;BME280;39629;51.400;5.494;2023-07-08T05:45:28;101377.75;;;21.94;100.00
47897;BME280;39629;51.400;5.494;2023-07-08T05:50:30;101383.97;;;21.94;100.00
47897;BME280;39629;51.400;5.494;2023-07-08T05:55:33;101368.38;;;21.84;100.00
47897;BME280;39629;51.400;5.494;2023-07-08T06:00:35;101373.25;;;22.37;100.00
47897;BME280;39629;51.400;5.494;2023-07-08T06:05:37;101373.47;;;22.33;100.00
47897;BME280;39629;51.400;5.494;2023-07-08T06:10:42;101387.06;;;22.69;100.00
47897;BME280;39629;51.400;5.494;2023-07-08T06:15:44;101384.69;;;23.22;100.00
47897;BME280;39629;51.400;5.494;2023-07-08T06:20:56;101384.97;;;22.96;100.00
47897;BME280;39629;51.400;5.494;2023-07-08T06:26:00;101391.56;;;23.46;100.00
47897;BME280;39629;51.400;5.494;2023-07-08T06:31:01;101392.44;;;23.66;100.00
47897;BME280;39629;51.400;5.494;2023-07-08T06:36:03;101381.94;;;24.15;98.88
47897;BME280;39629;51.400;5.494;2023-07-08T06:41:08;101386.41;;;24.50;97.90
47897;BME280;39629;51.400;5.494;2023-07-08T06:46:10;101384.53;;;24.86;87.54
47897;BME280;39629;51.400;5.494;2023-07-08T06:51:11;101389.53;;;25.09;85.23
47897;BME280;39629;51.400;5.494;2023-07-08T06:56:14;101383.16;;;25.12;86.53
47897;BME280;39629;51.400;5.494;2023-07-08T07:01:16;101385.56;;;25.96;76.11
47897;BME280;39629;51.400;5.494;2023-07-08T07:06:17;101372.16;;;25.79;67.83
47897;BME280;39629;51.400;5.494;2023-07-08T07:11:20;101370.72;;;25.41;70.75
47897;BME280;39629;51.400;5.494;2023-07-08T07:16:22;101381.03;;;25.97;65.12
47897;BME280;39629;51.400;5.494;2023-07-08T07:21:24;101382.56;;;26.62;65.34
47897;BME280;39629;51.400;5.494;2023-07-08T07:26:27;101377.66;;;26.38;62.22
47897;BME280;39629;51.400;5.494;2023-07-08T07:31:29;101380.91;;;26.74;64.49
47897;BME280;39629;51.400;5.494;2023-07-08T07:36:32;101388.38;;;26.40;62.82
47897;BME280;39629;51.400;5.494;2023-07-08T07:41:35;101381.19;;;26.55;64.07
47897;BME280;39629;51.400;5.494;2023-07-08T07:46:37;101378.97;;;27.04;61.50
47897;BME280;39629;51.400;5.494;2023-07-08T07:51:38;101387.41;;;27.83;60.73
47897;BME280;39629;51.400;5.494;2023-07-08T07:56:41;101384.03;;;28.07;53.41
47897;BME280;39629;51.400;5.494;2023-07-08T08:01:43;101380.47;;;27.79;54.58
47897;BME280;39629;51.400;5.494;2023-07-08T08:06:44;101379.94;;;27.60;51.66
47897;BME280;39629;51.400;5.494;2023-07-08T08:11:49;101378.16;;;28.66;52.90
47897;BME280;39629;51.400;5.494;2023-07-08T08:16:51;101389.06;;;27.71;52.08
47897;BME280;39629;51.400;5.494;2023-07-08T08:21:53;101387.09;;;28.15;49.90
47897;BME280;39629;51.400;5.494;2023-07-08T08:26:56;101386.69;;;28.47;49.14
47897;BME280;39629;51.400;5.494;2023-07-08T08:31:57;101390.59;;;28.69;48.51
47897;BME280;39629;51.400;5.494;2023-07-08T08:36:59;101388.53;;;28.85;47.52
47897;BME280;39629;51.400;5.494;2023-07-08T08:42:02;101397.53;;;28.99;47.05
47897;BME280;39629;51.400;5.494;2023-07-08T08:47:09;101390.25;;;29.49;43.49
47897;BME280;39629;51.400;5.494;2023-07-08T08:52:18;101405.34;;;30.37;42.30
47897;BME280;39629;51.400;5.494;2023-07-08T08:57:31;101402.97;;;30.80;39.45
47897;BME280;39629;51.400;5.494;2023-07-08T09:02:39;101414.50;;;31.06;38.46
47897;BME280;39629;51.400;5.494;2023-07-08T09:07:46;101402.09;;;31.36;36.89
47897;BME280;39629;51.400;5.494;2023-07-08T09:12:53;101392.16;;;30.44;38.43
47897;BME280;39629;51.400;5.494;2023-07-08T09:18:01;101387.59;;;31.58;37.85
47897;BME280;39629;51.400;5.494;2023-07-08T09:23:18;101388.00;;;31.19;37.03
47897;BME280;39629;51.400;5.494;2023-07-08T09:28:35;101387.78;;;31.77;34.63
47897;BME280;39629;51.400;5.494;2023-07-08T09:33:38;101379.91;;;32.28;34.21
47897;BME280;39629;51.400;5.494;2023-07-08T09:38:40;101369.50;;;32.01;35.04
47897;BME280;39629;51.400;5.494;2023-07-08T09:43:42;101370.91;;;33.20;33.41
47897;BME280;39629;51.400;5.494;2023-07-08T09:48:44;101367.22;;;33.41;33.77
47897;BME280;39629;51.400;5.494;2023-07-08T09:53:45;101362.72;;;32.79;30.96
47897;BME280;39629;51.400;5.494;2023-07-08T09:58:48;101373.09;;;32.95;32.35
47897;BME280;39629;51.400;5.494;2023-07-08T10:03:50;101374.41;;;33.32;32.03
47897;BME280;39629;51.400;5.494;2023-07-08T10:08:54;101386.97;;;32.83;30.60
47897;BME280;39629;51.400;5.494;2023-07-08T10:14:01;101380.16;;;32.67;31.21
47897;BME280;39629;51.400;5.494;2023-07-08T10:19:09;101372.03;;;33.78;31.49
47897;BME280;39629;51.400;5.494;2023-07-08T10:24:23;101372.28;;;33.14;29.90
47897;BME280;39629;51.400;5.494;2023-07-08T10:29:34;101373.59;;;33.71;28.95
47897;BME280;39629;51.400;5.494;2023-07-08T10:34:44;101373.38;;;34.51;29.88
47897;BME280;39629;51.400;5.494;2023-07-08T10:40:05;101372.44;;;34.03;29.67
47897;BME280;39629;51.400;5.494;2023-07-08T10:45:16;101376.56;;;34.46;29.30
47897;BME280;39629;51.400;5.494;2023-07-08T10:50:37;101384.22;;;34.13;30.83
47897;BME280;39629;51.400;5.494;2023-07-08T10:55:46;101380.19;;;34.84;29.05
47897;BME280;39629;51.400;5.494;2023-07-08T11:00:58;101373.88;;;34.07;28.24
47897;BME280;39629;51.400;5.494;2023-07-08T11:06:10;101366.66;;;34.35;27.68
47897;BME280;39629;51.400;5.494;2023-07-08T11:11:30;101365.63;;;34.93;28.33
47897;BME280;39629;51.400;5.494;2023-07-08T11:16:37;101375.53;;;35.22;26.65
47897;BME280;39629;51.400;5.494;2023-07-08T11:21:45;101369.81;;;34.40;26.34
47897;BME280;39629;51.400;5.494;2023-07-08T11:26:50;101371.56;;;34.31;26.75
47897;BME280;39629;51.400;5.494;2023-07-08T11:31:55;101367.53;;;34.16;27.95
47897;BME280;39629;51.400;5.494;2023-07-08T11:36:57;101356.59;;;34.83;26.81
47897;BME280;39629;51.400;5.494;2023-07-08T11:42:17;101349.50;;;34.53;26.49
47897;BME280;39629;51.400;5.494;2023-07-08T11:47:25;101345.47;;;34.94;26.59
47897;BME280;39629;51.400;5.494;2023-07-08T11:52:29;101357.94;;;35.71;29.25
47897;BME280;39629;51.400;5.494;2023-07-08T11:57:36;101356.97;;;35.80;25.40
47897;BME280;39629;51.400;5.494;2023-07-08T12:02:50;101348.59;;;35.99;27.22
47897;BME280;39629;51.400;5.494;2023-07-08T12:07:55;101338.94;;;34.68;26.33
47897;BME280;39629;51.400;5.494;2023-07-08T12:12:58;101341.81;;;35.31;27.19
47897;BME280;39629;51.400;5.494;2023-07-08T12:18:09;101336.84;;;35.81;27.38
47897;BME280;39629;51.400;5.494;2023-07-08T12:23:15;101335.50;;;35.49;26.42
47897;BME280;39629;51.400;5.494;2023-07-08T12:28:17;101331.75;;;35.68;28.04
47897;BME280;39629;51.400;5.494;2023-07-08T12:33:27;101332.44;;;35.34;27.55
47897;BME280;39629;51.400;5.494;2023-07-08T12:38:31;101321.16;;;35.91;27.32
47897;BME280;39629;51.400;5.494;2023-07-08T12:43:34;101319.31;;;36.18;26.41
47897;BME280;39629;51.400;5.494;2023-07-08T12:48:38;101317.91;;;35.52;26.83
47897;BME280;39629;51.400;5.494;2023-07-08T12:53:39;101316.22;;;35.77;28.82
47897;BME280;39629;51.400;5.494;2023-07-08T12:58:44;101325.31;;;35.41;28.15
47897;BME280;39629;51.400;5.494;2023-07-08T13:03:51;101325.00;;;35.98;28.15
47897;BME280;39629;51.400;5.494;2023-07-08T13:08:53;101318.75;;;35.88;27.80
47897;BME280;39629;51.400;5.494;2023-07-08T13:14:04;101317.97;;;36.22;27.33
47897;BME280;39629;51.400;5.494;2023-07-08T13:19:11;101317.69;;;35.17;26.80
47897;BME280;39629;51.400;5.494;2023-07-08T13:24:13;101317.38;;;36.10;28.93
47897;BME280;39629;51.400;5.494;2023-07-08T13:29:17;101320.78;;;35.68;27.78
47897;BME280;39629;51.400;5.494;2023-07-08T13:34:23;101320.78;;;35.50;27.70
47897;BME280;39629;51.400;5.494;2023-07-08T13:39:27;101319.78;;;35.23;25.86
47897;BME280;39629;51.400;5.494;2023-07-08T13:44:31;101325.75;;;36.09;26.90
47897;BME280;39629;51.400;5.494;2023-07-08T13:49:39;101324.13;;;36.24;26.42
47897;BME280;39629;51.400;5.494;2023-07-08T13:54:45;101322.38;;;36.41;27.76
47897;BME280;39629;51.400;5.494;2023-07-08T13:59:47;101323.13;;;36.51;25.07
47897;BME280;39629;51.400;5.494;2023-07-08T14:04:52;101323.88;;;36.36;27.67
47897;BME280;39629;51.400;5.494;2023-07-08T14:09:53;101324.34;;;36.05;25.48
47897;BME280;39629;51.400;5.494;2023-07-08T14:14:55;101317.81;;;36.50;26.94
47897;BME280;39629;51.400;5.494;2023-07-08T14:19:58;101324.63;;;35.93;26.18
47897;BME280;39629;51.400;5.494;2023-07-08T14:25:04;101335.72;;;35.74;26.64
47897;BME280;39629;51.400;5.494;2023-07-08T14:30:09;101347.44;;;35.66;27.46
47897;BME280;39629;51.400;5.494;2023-07-08T14:35:17;101349.09;;;35.41;27.01
47897;BME280;39629;51.400;5.494;2023-07-08T14:40:24;101355.66;;;35.20;28.68
47897;BME280;39629;51.400;5.494;2023-07-08T14:45:28;101351.84;;;34.75;31.03
47897;BME280;39629;51.400;5.494;2023-07-08T14:50:31;101348.38;;;34.83;29.34
47897;BME280;39629;51.400;5.494;2023-07-08T14:55:33;101349.69;;;34.31;30.06
47897;BME280;39629;51.400;5.494;2023-07-08T15:00:35;101360.47;;;34.43;30.69
47897;BME280;39629;51.400;5.494;2023-07-08T15:05:38;101351.75;;;34.00;32.84
47897;BME280;39629;51.400;5.494;2023-07-08T15:10:42;101353.47;;;33.91;31.50
47897;BME280;39629;51.400;5.494;2023-07-08T15:15:45;101358.09;;;33.81;32.46
47897;BME280;39629;51.400;5.494;2023-07-08T15:20:48;101359.22;;;33.98;36.43
47897;BME280;39629;51.400;5.494;2023-07-08T15:25:50;101356.97;;;33.23;35.09
47897;BME280;39629;51.400;5.494;2023-07-08T15:30:52;101353.59;;;33.00;34.78
47897;BME280;39629;51.400;5.494;2023-07-08T15:35:55;101355.88;;;32.95;36.76
47897;BME280;39629;51.400;5.494;2023-07-08T15:40:57;101359.28;;;32.87;33.24
47897;BME280;39629;51.400;5.494;2023-07-08T15:46:01;101358.88;;;32.61;33.93
47897;BME280;39629;51.400;5.494;2023-07-08T15:51:04;101363.44;;;32.60;35.36
47897;BME280;39629;51.400;5.494;2023-07-08T15:56:07;101360.72;;;32.60;38.13
47897;BME280;39629;51.400;5.494;2023-07-08T16:01:16;101368.00;;;32.50;38.27
47897;BME280;39629;51.400;5.494;2023-07-08T16:06:21;101363.25;;;32.52;37.15
47897;BME280;39629;51.400;5.494;2023-07-08T16:11:31;101363.63;;;32.38;36.96
47897;BME280;39629;51.400;5.494;2023-07-08T16:16:32;101371.06;;;32.15;38.75
47897;BME280;39629;51.400;5.494;2023-07-08T16:21:35;101366.69;;;31.91;40.31
47897;BME280;39629;51.400;5.494;2023-07-08T16:26:38;101364.16;;;31.78;42.30
47897;BME280;39629;51.400;5.494;2023-07-08T16:31:40;101362.75;;;31.63;41.23
47897;BME280;39629;51.400;5.494;2023-07-08T16:36:43;101358.94;;;31.54;40.38
47897;BME280;39629;51.400;5.494;2023-07-08T16:41:44;101362.84;;;31.50;38.65
47897;BME280;39629;51.400;5.494;2023-07-08T16:46:46;101350.16;;;31.50;37.00
47897;BME280;39629;51.400;5.494;2023-07-08T16:51:50;101364.97;;;31.57;38.32
47897;BME280;39629;51.400;5.494;2023-07-08T16:56:51;101353.72;;;31.83;38.66
47897;BME280;39629;51.400;5.494;2023-07-08T17:01:53;101348.75;;;32.21;38.28
47897;BME280;39629;51.400;5.494;2023-07-08T17:06:56;101350.19;;;32.46;36.13
47897;BME280;39629;51.400;5.494;2023-07-08T17:11:57;101350.09;;;32.57;36.67
47897;BME280;39629;51.400;5.494;2023-07-08T17:16:59;101346.09;;;32.09;38.63
47897;BME280;39629;51.400;5.494;2023-07-08T17:22:02;101361.28;;;32.12;40.44
47897;BME280;39629;51.400;5.494;2023-07-08T17:27:05;101348.97;;;31.97;40.16
47897;BME280;39629;51.400;5.494;2023-07-08T17:32:08;101350.16;;;32.04;37.05
47897;BME280;39629;51.400;5.494;2023-07-08T17:37:13;101346.50;;;31.72;41.91
47897;BME280;39629;51.400;5.494;2023-07-08T17:42:15;101352.09;;;31.59;39.21
47897;BME280;39629;51.400;5.494;2023-07-08T17:47:16;101351.78;;;31.53;37.64
47897;BME280;39629;51.400;5.494;2023-07-08T17:52:20;101350.63;;;31.55;38.51
47897;BME280;39629;51.400;5.494;2023-07-08T17:57:22;101352.00;;;31.61;40.48
47897;BME280;39629;51.400;5.494;2023-07-08T18:02:23;101352.91;;;31.27;43.17
47897;BME280;39629;51.400;5.494;2023-07-08T18:07:27;101353.44;;;31.10;43.90
47897;BME280;39629;51.400;5.494;2023-07-08T18:12:29;101360.09;;;31.17;43.09
47897;BME280;39629;51.400;5.494;2023-07-08T18:17:32;101365.03;;;30.89;41.06
47897;BME280;39629;51.400;5.494;2023-07-08T18:22:35;101372.81;;;30.71;42.49
47897;BME280;39629;51.400;5.494;2023-07-08T18:27:36;101371.34;;;30.67;42.21
47897;BME280;39629;51.400;5.494;2023-07-08T18:32:38;101388.22;;;30.37;45.70
47897;BME280;39629;51.400;5.494;2023-07-08T18:37:41;101393.31;;;30.17;43.79
47897;BME280;39629;51.400;5.494;2023-07-08T18:42:50;101401.94;;;30.11;45.77
47897;BME280;39629;51.400;5.494;2023-07-08T18:47:52;101405.91;;;29.70;52.29
47897;BME280;39629;51.400;5.494;2023-07-08T18:52:55;101409.78;;;29.54;50.81
47897;BME280;39629;51.400;5.494;2023-07-08T18:57:57;101411.16;;;29.10;54.65
47897;BME280;39629;51.400;5.494;2023-07-08T19:02:59;101412.16;;;28.58;56.64
47897;BME280;39629;51.400;5.494;2023-07-08T19:08:03;101409.63;;;27.88;57.71
47897;BME280;39629;51.400;5.494;2023-07-08T19:13:09;101402.09;;;27.37;80.71
47897;BME280;39629;51.400;5.494;2023-07-08T19:18:12;101398.47;;;26.95;90.37
47897;BME280;39629;51.400;5.494;2023-07-08T19:23:16;101402.91;;;26.67;88.55
47897;BME280;39629;51.400;5.494;2023-07-08T19:28:19;101406.59;;;26.50;89.88
47897;BME280;39629;51.400;5.494;2023-07-08T19:33:21;101411.69;;;26.41;83.86
47897;BME280;39629;51.400;5.494;2023-07-08T19:38:26;101410.88;;;26.24;89.60
47897;BME280;39629;51.400;5.494;2023-07-08T19:43:27;101410.59;;;25.98;84.51
47897;BME280;39629;51.400;5.494;2023-07-08T19:48:29;101414.97;;;25.69;89.67
47897;BME280;39629;51.400;5.494;2023-07-08T19:53:31;101414.59;;;25.27;100.00
47897;BME280;39629;51.400;5.494;2023-07-08T19:58:33;101430.09;;;25.06;100.00
47897;BME280;39629;51.400;5.494;2023-07-08T20:03:35;101440.31;;;24.83;100.00
47897;BME280;39629;51.400;5.494;2023-07-08T20:08:43;101450.59;;;24.75;100.00
47897;BME280;39629;51.400;5.494;2023-07-08T20:13:46;101452.81;;;24.67;100.00
47897;BME280;39629;51.400;5.494;2023-07-08T20:18:47;101458.94;;;24.53;100.00
47897;BME280;39629;51.400;5.494;2023-07-08T20:23:53;101471.34;;;24.38;100.00
47897;BME280;39629;51.400;5.494;2023-07-08T20:28:55;101468.59;;;24.21;100.00
47897;BME280;39629;51.400;5.494;2023-07-08T20:33:57;101479.44;;;23.82;100.00
47897;BME280;39629;51.400;5.494;2023-07-08T20:38:59;101484.75;;;23.65;100.00
47897;BME280;39629;51.400;5.494;2023-07-08T20:44:01;101484.50;;;23.51;100.00
47897;BME280;39629;51.400;5.494;2023-07-08T20:49:07;101483.09;;;23.42;100.00
47897;BME280;39629;51.400;5.494;2023-07-08T20:54:12;101487.38;;;23.27;100.00
47897;BME280;39629;51.400;5.494;2023-07-08T20:59:19;101489.84;;;22.92;100.00
47897;BME280;39629;51.400;5.494;2023-07-08T21:04:21;101475.63;;;22.90;100.00
47897;BME280;39629;51.400;5.494;2023-07-08T21:09:24;101478.03;;;22.75;100.00
47897;BME280;39629;51.400;5.494;2023-07-08T21:14:26;101475.59;;;22.69;100.00
47897;BME280;39629;51.400;5.494;2023-07-08T21:19:27;101485.72;;;22.62;100.00
47897;BME280;39629;51.400;5.494;2023-07-08T21:24:30;101481.88;;;22.68;100.00
47897;BME280;39629;51.400;5.494;2023-07-08T21:29:32;101479.41;;;22.63;100.00
47897;BME280;39629;51.400;5.494;2023-07-08T21:34:34;101490.94;;;22.45;100.00
47897;BME280;39629;51.400;5.494;2023-07-08T21:39:37;101493.94;;;22.37;100.00
47897;BME280;39629;51.400;5.494;2023-07-08T21:44:39;101495.84;;;22.13;100.00
47897;BME280;39629;51.400;5.494;2023-07-08T21:49:40;101505.09;;;22.26;100.00
47897;BME280;39629;51.400;5.494;2023-07-08T21:54:43;101511.84;;;22.15;100.00
47897;BME280;39629;51.400;5.494;2023-07-08T21:59:45;101497.41;;;21.49;100.00
47897;BME280;39629;51.400;5.494;2023-07-08T22:04:46;101502.59;;;21.54;100.00
47897;BME280;39629;51.400;5.494;2023-07-08T22:09:52;101495.66;;;21.72;100.00
47897;BME280;39629;51.400;5.494;2023-07-08T22:14:53;101496.31;;;21.55;100.00
47897;BME280;39629;51.400;5.494;2023-07-08T22:19:55;101502.59;;;21.54;100.00
47897;BME280;39629;51.400;5.494;2023-07-08T22:24:58;101509.69;;;21.55;100.00
47897;BME280;39629;51.400;5.494;2023-07-08T22:29:59;101512.84;;;21.42;100.00
47897;BME280;39629;51.400;5.494;2023-07-08T22:35:01;101509.63;;;21.33;100.00
47897;BME280;39629;51.400;5.494;2023-07-08T22:40:05;101518.31;;;21.39;100.00
47897;BME280;39629;51.400;5.494;2023-07-08T22:45:11;101523.38;;;21.47;100.00
47897;BME280;39629;51.400;5.494;2023-07-08T22:50:14;101517.88;;;21.50;100.00
47897;BME280;39629;51.400;5.494;2023-07-08T22:55:21;101520.53;;;21.52;100.00
47897;BME280;39629;51.400;5.494;2023-07-08T23:00:26;101522.38;;;21.50;100.00
47897;BME280;39629;51.400;5.494;2023-07-08T23:05:29;101526.03;;;21.47;100.00
47897;BME280;39629;51.400;5.494;2023-07-08T23:10:32;101520.03;;;21.40;100.00
47897;BME280;39629;51.400;5.494;2023-07-08T23:15:34;101533.91;;;21.01;100.00
47897;BME280;39629;51.400;5.494;2023-07-08T23:20:35;101536.53;;;20.77;100.00
47897;BME280;39629;51.400;5.494;2023-07-08T23:25:38;101540.00;;;20.81;100.00
47897;BME280;39629;51.400;5.494;2023-07-08T23:30:40;101537.31;;;20.81;100.00
47897;BME280;39629;51.400;5.494;2023-07-08T23:35:43;101532.03;;;20.80;100.00
47897;BME280;39629;51.400;5.494;2023-07-08T23:40:48;101526.03;;;20.45;100.00
47897;BME280;39629;51.400;5.494;2023-07-08T23:45:50;101523.16;;;20.24;100.00
47897;BME280;39629;51.400;5.494;2023-07-08T23:50:52;101517.78;;;19.96;100.00
47897;BME280;39629;51.400;5.494;2023-07-08T23:55:55;101524.69;;;20.03;100.00
